Time;durP1;ratioP1;P1;durP2;ratioP2;P2;SDS_P1;SDS_P2;PMS_P1;PMS_P2;Temp;Humidity;BMP_temperature;BMP_pressure;BME280_temperature;BME280_humidity;BME280_pressure;Samples;Min_cycle;Max_cycle;Signal;HPM_P1;HPM_P2
2021/08/27 01:01:46;;;;;;;0.10;0.10;;;;;;;21.25;56.65;100178.75;6280465;22;20030;-63
2021/08/27 01:04:12;;;;;;;0.10;0.10;;;;;;;21.24;56.81;100184.19;6271906;22;20020;-63
2021/08/27 01:06:41;;;;;;;0.22;0.22;;;;;;;21.25;56.45;100191.19;6245642;22;20395;-64
2021/08/27 01:09:38;;;;;;;0.20;0.20;;;;;;;21.24;56.49;100178.88;6271581;22;20019;-64
2021/08/27 01:12:30;;;;;;;0.20;0.20;;;;;;;21.23;56.63;100183.38;6272007;22;20023;-65
2021/08/27 01:15:07;;;;;;;0.40;0.40;;;;;;;21.25;56.40;100185.88;6245138;22;20031;-65
2021/08/27 01:17:36;;;;;;;0.32;0.32;;;;;;;21.25;56.20;100177.91;6245313;22;20022;-64
2021/08/27 01:20:02;;;;;;;0.40;0.40;;;;;;;21.30;55.89;100178.31;6244947;22;20026;-64
2021/08/27 01:22:57;;;;;;;0.10;0.10;;;;;;;21.32;55.93;100194.09;6272948;22;20344;-65
2021/08/27 01:25:22;;;;;;;0.10;0.10;;;;;;;21.22;56.04;100170.22;6272224;22;20043;-62
2021/08/27 01:27:49;;;;;;;0.30;0.30;;;;;;;21.21;56.20;100168.53;6244995;22;20129;-62
2021/08/27 01:30:20;;;;;;;0.65;0.65;;;;;;;21.30;56.26;100181.78;6244547;22;20043;-62
2021/08/27 01:32:46;;;;;;;0.45;0.45;;;;;;;21.28;56.54;100177.59;6245275;22;20019;-63
2021/08/27 01:35:12;;;;;;;0.10;0.10;;;;;;;21.26;56.73;100193.72;6244594;22;20464;-64
2021/08/27 01:37:38;;;;;;;0.10;0.10;;;;;;;21.20;56.90;100193.44;6220133;22;20027;-63
2021/08/27 01:40:05;;;;;;;0.25;0.25;;;;;;;21.11;56.79;100160.59;6244607;22;20028;-64
2021/08/27 01:42:31;;;;;;;0.10;0.10;;;;;;;21.17;57.03;100180.47;6245340;22;20026;-63
2021/08/27 01:44:57;;;;;;;0.25;0.25;;;;;;;21.06;56.97;100165.47;6244798;22;20016;-63
2021/08/27 01:47:28;;;;;;;0.10;0.10;;;;;;;21.18;57.03;100179.44;6245306;22;20015;-62
2021/08/27 01:49:54;;;;;;;0.10;0.10;;;;;;;21.17;56.79;100181.28;6244721;22;20169;-64
2021/08/27 01:52:21;;;;;;;0.25;0.25;;;;;;;21.14;56.98;100183.38;6271789;22;20024;-63
2021/08/27 01:54:47;;;;;;;0.30;0.30;;;;;;;21.17;56.99;100196.38;6220240;22;20459;-63
2021/08/27 01:57:13;;;;;;;0.10;0.10;;;;;;;21.14;57.21;100194.84;6244875;22;20362;-63
2021/08/27 01:59:40;;;;;;;0.10;0.10;;;;;;;21.17;56.67;100191.09;6219842;22;20019;-63
2021/08/27 02:02:07;;;;;;;0.10;0.10;;;;;;;21.17;57.01;100180.47;6244626;22;20046;-63
2021/08/27 02:04:35;;;;;;;0.15;0.15;;;;;;;21.14;57.04;100183.38;6250533;22;20106;-63
2021/08/27 02:07:01;;;;;;;0.20;0.20;;;;;;;21.10;57.23;100192.63;6302531;22;20015;-63
2021/08/27 02:09:27;;;;;;;0.20;0.20;;;;;;;21.01;57.17;100177.50;6303035;22;20033;-63
2021/08/27 02:11:52;;;;;;;0.20;0.20;;;;;;;21.06;57.07;100175.25;6302920;22;20015;-62
2021/08/27 02:14:18;;;;;;;0.10;0.10;;;;;;;21.10;57.06;100184.66;6302396;22;20406;-64
2021/08/27 02:16:44;;;;;;;0.20;0.20;;;;;;;21.11;56.91;100183.66;6275835;22;20035;-63
2021/08/27 02:19:10;;;;;;;0.10;0.10;;;;;;;21.14;56.69;100194.84;6302327;22;20061;-63
2021/08/27 02:21:40;;;;;;;0.10;0.10;;;;;;;21.13;56.83;100197.66;6275594;22;20069;-63
2021/08/27 02:24:10;;;;;;;3.83;0.60;;;;;;;21.11;56.82;100189.81;6275496;22;20019;-63
2021/08/27 02:26:36;;;;;;;0.17;0.17;;;;;;;21.13;57.12;100202.97;6251168;22;20042;-64
2021/08/27 02:29:02;;;;;;;0.20;0.20;;;;;;;21.13;57.17;100206.47;6275193;22;20022;-63
2021/08/27 02:31:28;;;;;;;0.20;0.20;;;;;;;21.13;57.19;100202.97;6275521;22;20015;-63
2021/08/27 02:33:54;;;;;;;0.25;0.25;;;;;;;21.12;57.19;100212.75;6302669;22;20018;-64
2021/08/27 02:36:20;;;;;;;0.28;0.28;;;;;;;21.13;57.01;100210.94;6274931;22;20026;-63
2021/08/27 02:38:46;;;;;;;0.10;0.10;;;;;;;21.13;56.90;100217.09;6250063;22;20022;-63
2021/08/27 02:41:12;;;;;;;0.15;0.15;;;;;;;21.13;56.69;100209.13;6274874;22;20019;-63
2021/08/27 02:43:38;;;;;;;0.10;0.10;;;;;;;21.16;56.92;100218.59;6302782;22;20011;-63
2021/08/27 02:46:04;;;;;;;0.35;0.35;;;;;;;21.16;56.77;100229.22;6249359;22;20023;-65
2021/08/27 02:48:30;;;;;;;0.10;0.10;;;;;;;21.05;57.04;100198.31;6275364;22;20026;-62
2021/08/27 02:51:17;;;;;;;0.10;0.10;;;;;;;21.06;57.01;100212.44;6302470;22;20128;-64
2021/08/27 02:53:46;;;;;;;0.30;0.30;;;;;;;21.09;56.93;100218.34;6252343;22;20015;-63
2021/08/27 02:56:41;;;;;;;0.10;0.10;;;;;;;21.14;56.94;100231.16;6249840;22;20015;-64
2021/08/27 02:59:11;;;;;;;0.13;0.13;;;;;;;21.14;56.88;100220.53;6276296;22;20019;-63
2021/08/27 03:01:40;;;;;;;0.20;0.20;;;;;;;21.11;57.05;100220.84;6256974;22;20459;-62
2021/08/27 03:04:24;;;;;;;0.20;0.20;;;;;;;21.13;56.89;100219.72;6221259;22;20359;-63
2021/08/27 03:07:00;;;;;;;0.10;0.10;;;;;;;21.14;56.83;100221.38;6273551;22;20015;-63
2021/08/27 03:09:25;;;;;;;0.20;0.20;;;;;;;21.15;57.07;100230.19;6273301;22;20065;-62
2021/08/27 03:11:52;;;;;;;0.20;0.20;;;;;;;21.16;56.76;100245.16;6246182;22;20027;-62
2021/08/27 03:14:30;;;;;;;0.10;0.10;;;;;;;21.18;56.92;100227.25;6273050;22;20016;-63
2021/08/27 03:16:59;;;;;;;0.10;0.10;;;;;;;21.18;56.63;100232.56;6246314;22;20019;-63
2021/08/27 03:19:27;;;;;;;0.10;0.10;;;;;;;21.18;56.61;100238.72;6246691;22;20023;-63
2021/08/27 03:22:05;;;;;;;0.10;0.10;;;;;;;21.15;56.70;100223.06;6246637;22;20027;-63
2021/08/27 03:24:48;;;;;;;0.10;0.10;;;;;;;21.21;56.76;100237.59;6222089;22;20023;-63
2021/08/27 03:27:19;;;;;;;0.17;0.17;;;;;;;21.18;56.75;100243.19;6220911;22;20024;-64
2021/08/27 03:29:49;;;;;;;0.10;0.10;;;;;;;21.21;56.78;100243.75;6246726;22;20459;-63
2021/08/27 03:32:15;;;;;;;0.10;0.10;;;;;;;21.23;56.75;100246.28;6246786;22;20027;-64
2021/08/27 03:34:41;;;;;;;0.30;0.30;;;;;;;21.26;56.25;100253.97;6273031;22;20015;-63
2021/08/27 03:37:07;;;;;;;0.13;0.13;;;;;;;21.29;56.32;100261.63;6272794;22;20020;-64
2021/08/27 03:39:35;;;;;;;0.10;0.10;;;;;;;21.29;56.31;100251.84;6272824;22;20370;-63
2021/08/27 03:42:01;;;;;;;0.20;0.20;;;;;;;21.33;56.27;100249.75;6245825;22;20026;-64
2021/08/27 03:44:27;;;;;;;0.25;0.25;;;;;;;21.33;56.24;100251.56;6272896;22;20470;-63
2021/08/27 03:46:53;;;;;;;0.30;0.30;;;;;;;21.35;56.20;100265.53;6273204;22;20051;-63
2021/08/27 03:49:19;;;;;;;0.32;0.32;;;;;;;21.38;56.17;100271.41;6245880;22;20455;-63
2021/08/27 03:51:45;;;;;;;0.20;0.20;;;;;;;21.44;55.64;100273.47;6273107;22;20023;-62
2021/08/27 03:54:11;;;;;;;0.10;0.10;;;;;;;21.51;55.59;100265.78;6272724;22;20019;-63
2021/08/27 03:56:37;;;;;;;0.20;0.20;;;;;;;21.53;55.39;100271.81;6245785;22;20027;-63
2021/08/27 03:59:03;;;;;;;0.30;0.30;;;;;;;21.57;55.40;100289.97;6273114;22;20069;-64
2021/08/27 04:01:29;;;;;;;0.20;0.20;;;;;;;21.58;55.16;100282.81;6263210;22;20019;-64
2021/08/27 04:03:55;;;;;;;0.20;0.20;;;;;;;21.50;55.10;100275.56;6304385;22;20015;-63
2021/08/27 04:06:21;;;;;;;0.10;0.10;;;;;;;21.58;55.34;100283.66;6276243;22;20030;-64
2021/08/27 04:08:47;;;;;;;0.20;0.20;;;;;;;21.56;55.38;100282.16;6303904;22;20045;-64
2021/08/27 04:11:14;;;;;;;0.10;0.10;;;;;;;21.51;55.35;100279.91;6303388;22;20094;-63
2021/08/27 04:13:41;;;;;;;0.25;0.25;;;;;;;21.38;55.38;100255.47;6303930;22;20125;-63
2021/08/27 04:16:07;;;;;;;0.10;0.10;;;;;;;21.52;55.37;100294.03;6303184;22;20038;-64
2021/08/27 04:18:33;;;;;;;0.20;0.20;;;;;;;21.54;55.43;100284.09;6304284;22;20022;-64
2021/08/27 04:21:02;;;;;;;0.20;0.20;;;;;;;21.53;55.47;100283.25;6303859;22;20076;-64
2021/08/27 04:23:28;;;;;;;0.22;0.22;;;;;;;21.54;55.32;100287.59;6303865;22;20019;-64
2021/08/27 04:25:54;;;;;;;0.17;0.17;;;;;;;21.57;55.34;100289.13;6303638;22;20141;-64
2021/08/27 04:28:20;;;;;;;0.30;0.30;;;;;;;21.56;55.47;100290.94;6303448;22;20023;-64
2021/08/27 04:30:46;;;;;;;0.22;0.22;;;;;;;21.58;55.18;100281.00;6276409;22;20030;-63
2021/08/27 04:33:12;;;;;;;0.10;0.10;;;;;;;21.59;55.04;100274.72;6303288;22;20019;-64
2021/08/27 04:35:38;;;;;;;0.10;0.10;;;;;;;21.64;55.12;100288.41;6303718;22;20125;-64
2021/08/27 04:38:04;;;;;;;0.10;0.10;;;;;;;21.63;54.88;100284.06;6303414;22;20015;-64
2021/08/27 04:40:30;;;;;;;0.20;0.20;;;;;;;21.70;54.84;100294.97;6303323;22;20019;-64
2021/08/27 04:42:56;;;;;;;2.83;1.40;;;;;;;21.69;54.91;100294.13;6276367;22;20020;-64
2021/08/27 04:45:22;;;;;;;0.47;0.47;;;;;;;21.69;54.92;100286.13;6302957;22;20481;-64
2021/08/27 04:47:48;;;;;;;0.47;0.47;;;;;;;21.75;54.75;100298.88;6303527;22;20046;-64
2021/08/27 04:50:14;;;;;;;0.20;0.20;;;;;;;21.78;54.42;100290.63;6302826;22;20404;-64
2021/08/27 04:52:40;;;;;;;0.10;0.10;;;;;;;21.75;54.47;100274.97;6303502;22;20023;-64
2021/08/27 04:55:07;;;;;;;0.10;0.10;;;;;;;21.86;54.13;100281.09;6302888;22;20048;-65
2021/08/27 04:57:33;;;;;;;0.20;0.20;;;;;;;21.92;54.08;100285.84;6303232;22;20019;-65
2021/08/27 04:59:59;;;;;;;0.10;0.10;;;;;;;21.92;54.22;100285.84;6303148;22;20021;-63
2021/08/27 05:02:25;;;;;;;0.50;0.50;;;;;;;21.97;53.94;100283.56;6302632;22;20030;-63
2021/08/27 05:04:50;;;;;;;0.73;0.73;;;;;;;22.03;53.96;100288.28;6276113;22;20027;-64
2021/08/27 05:07:17;;;;;;;0.20;0.20;;;;;;;22.09;53.73;100282.38;6302942;22;20019;-64
2021/08/27 05:09:43;;;;;;;0.10;0.10;;;;;;;22.12;53.43;100282.94;6303141;22;20019;-64
2021/08/27 05:12:10;;;;;;;0.20;0.20;;;;;;;22.13;53.51;100289.09;6302746;22;20023;-63
2021/08/27 05:14:35;;;;;;;0.20;0.20;;;;;;;22.15;53.43;100292.47;6303230;22;20553;-65
2021/08/27 05:17:02;;;;;;;0.10;0.10;;;;;;;22.11;53.14;100280.44;6302918;22;20011;-63
2021/08/27 05:19:27;;;;;;;0.17;0.17;;;;;;;22.24;52.85;100296.91;6302778;22;20019;-63
2021/08/27 05:21:54;;;;;;;0.43;0.43;;;;;;;22.30;52.81;100301.63;6302967;22;20030;-64
2021/08/27 05:24:20;;;;;;;0.30;0.30;;;;;;;22.28;52.89;100299.09;6302696;22;20497;-64
2021/08/27 05:26:46;;;;;;;0.30;0.30;;;;;;;22.33;52.62;100296.00;6302331;22;20019;-64
2021/08/27 05:29:12;;;;;;;0.57;0.57;;;;;;;22.34;52.86;100300.34;6302745;22;20065;-66
2021/08/27 05:31:38;;;;;;;0.17;0.17;;;;;;;22.27;52.38;100302.75;6303447;22;20065;-64
2021/08/27 05:34:06;;;;;;;0.20;0.20;;;;;;;22.40;52.54;100312.22;6303118;22;20018;-64
2021/08/27 05:36:32;;;;;;;0.47;0.47;;;;;;;22.45;52.49;100326.75;6303045;22;20019;-65
2021/08/27 05:38:58;;;;;;;0.50;0.50;;;;;;;22.49;52.23;100321.97;6303254;22;20415;-63
2021/08/27 05:41:25;;;;;;;1.75;0.85;;;;;;;22.48;52.09;100318.44;6275299;22;20023;-64
2021/08/27 05:43:51;;;;;;;0.10;0.10;;;;;;;22.52;51.83;100317.19;6303274;22;20468;-64
2021/08/27 05:46:17;;;;;;;0.20;0.20;;;;;;;22.59;51.98;100312.94;6302602;22;20046;-64
2021/08/27 05:48:43;;;;;;;0.22;0.22;;;;;;;22.65;51.57;100319.47;6303004;22;20042;-65
2021/08/27 05:51:09;;;;;;;0.25;0.25;;;;;;;22.71;51.32;100324.22;6275444;22;20178;-64
2021/08/27 05:53:35;;;;;;;0.28;0.28;;;;;;;22.72;51.26;100313.44;6303035;22;20043;-65
2021/08/27 05:56:01;;;;;;;0.10;0.10;;;;;;;22.84;51.04;100327.38;6303104;22;20135;-63
2021/08/27 05:58:27;;;;;;;0.43;0.43;;;;;;;22.91;50.84;100328.44;6302482;22;20019;-63
2021/08/27 06:00:53;;;;;;;0.10;0.10;;;;;;;23.10;50.20;100332.81;6274988;22;20782;-63
2021/08/27 06:03:19;;;;;;;0.13;0.13;;;;;;;23.22;49.99;100331.56;6275163;22;20030;-63
2021/08/27 06:05:45;;;;;;;0.63;0.63;;;;;;;23.21;49.99;100329.88;6302850;22;20019;-67
2021/08/27 06:08:14;;;;;;;0.95;0.95;;;;;;;23.29;49.60;100332.63;6303016;22;20068;-63
2021/08/27 06:10:44;;;;;;;0.57;0.52;;;;;;;23.38;49.50;100336.19;6276914;22;20401;-63
2021/08/27 06:13:12;;;;;;;0.35;0.35;;;;;;;23.55;48.94;100317.56;6224639;22;20026;-63
2021/08/27 06:19:05;;;;;;;0.25;0.25;;;;;;;23.79;48.20;100331.03;6245656;22;20027;-67
2021/08/27 06:21:32;;;;;;;0.25;0.25;;;;;;;23.60;48.38;100309.91;6277111;22;20015;-66
2021/08/27 06:24:01;;;;;;;0.63;0.63;;;;;;;23.64;48.51;100327.28;6276826;22;20019;-65
2021/08/27 06:26:27;;;;;;;0.30;0.30;;;;;;;23.60;48.64;100331.25;6302434;22;20038;-64
2021/08/27 06:28:54;;;;;;;0.28;0.28;;;;;;;23.47;48.61;100314.81;6304197;22;20026;-63
2021/08/27 06:31:20;;;;;;;0.30;0.30;;;;;;;23.41;48.85;100323.44;6276055;22;20042;-68
2021/08/27 06:33:47;;;;;;;0.25;0.25;;;;;;;23.44;48.96;100320.47;6251130;22;20016;-67
2021/08/27 06:36:14;;;;;;;5.32;0.57;;;;;;;23.52;48.57;100328.53;6277006;22;20019;-64
2021/08/27 06:38:41;;;;;;;0.20;0.20;;;;;;;23.57;48.51;100320.03;6278395;22;20109;-67
2021/08/27 06:41:07;;;;;;;0.30;0.30;;;;;;;23.72;48.25;100319.31;6305884;22;20049;-64
2021/08/27 06:43:35;;;;;;;0.35;0.35;;;;;;;23.72;47.98;100308.66;6228150;22;20054;-66
2021/08/27 06:46:09;;;;;;;0.10;0.10;;;;;;;23.96;47.70;100333.78;6278588;22;20019;-64
2021/08/27 06:48:37;;;;;;;0.20;0.20;;;;;;;24.04;47.32;100304.50;6253107;22;20450;-65
2021/08/27 06:51:12;;;;;;;0.38;0.38;;;;;;;24.15;46.83;100325.59;6279548;22;20027;-65
2021/08/27 06:53:38;;;;;;;0.40;0.40;;;;;;;24.46;46.33;100331.25;6305601;22;20019;-67
2021/08/27 06:56:05;;;;;;;0.40;0.40;;;;;;;24.61;45.92;100343.81;6305412;22;20090;-64
2021/08/27 06:58:33;;;;;;;0.45;0.45;;;;;;;24.83;45.27;100324.56;6252965;22;20076;-67
2021/08/27 07:01:00;;;;;;;0.22;0.22;;;;;;;24.92;45.15;100336.09;6278228;22;20034;-68
2021/08/27 07:03:27;;;;;;;0.60;0.60;;;;;;;25.18;44.48;100335.94;6305213;22;20015;-63
2021/08/27 07:05:54;;;;;;;0.40;0.40;;;;;;;25.44;43.74;100333.09;6227973;22;20019;-66
2021/08/27 07:08:21;;;;;;;6.82;0.85;;;;;;;25.58;43.44;100322.63;6252385;22;20030;-63
2021/08/27 07:10:47;;;;;;;2.15;1.05;;;;;;;25.53;43.76;100314.25;6277915;22;20483;-67
2021/08/27 07:13:14;;;;;;;0.57;0.57;;;;;;;25.35;43.89;100332.28;6305075;22;20355;-66
2021/08/27 07:15:57;;;;;;;1.02;0.43;;;;;;;25.34;43.83;100336.78;6252879;22;20481;-68
2021/08/27 07:18:24;;;;;;;0.52;0.52;;;;;;;25.27;44.13;100326.91;6280286;22;20019;-61
2021/08/27 07:20:51;;;;;;;0.40;0.40;;;;;;;25.13;44.23;100344.44;6304934;22;20049;-66
2021/08/27 07:23:18;;;;;;;0.38;0.38;;;;;;;25.08;44.21;100329.91;6228082;22;20019;-66
2021/08/27 07:25:44;;;;;;;0.40;0.40;;;;;;;25.09;44.64;100326.25;6278633;22;20019;-65
2021/08/27 07:28:14;;;;;;;0.80;0.60;;;;;;;25.04;44.68;100331.25;6305288;22;20019;-65
2021/08/27 07:30:44;;;;;;;0.20;0.20;;;;;;;25.01;44.49;100350.28;6277975;22;20023;-64
2021/08/27 07:33:11;;;;;;;0.68;0.68;;;;;;;25.06;44.42;100343.47;6304845;22;20117;-67
2021/08/27 07:35:38;;;;;;;0.52;0.52;;;;;;;25.13;44.08;100348.97;6251842;22;20019;-67
2021/08/27 07:38:04;;;;;;;0.22;0.22;;;;;;;25.39;43.62;100336.31;6278561;22;20485;-68
2021/08/27 07:40:32;;;;;;;0.20;0.20;;;;;;;25.60;43.10;100344.66;6304666;22;20015;-67
2021/08/27 07:43:02;;;;;;;0.20;0.20;;;;;;;25.92;42.32;100341.94;6305149;22;20026;-66
2021/08/27 07:45:32;;;;;;;0.30;0.30;;;;;;;26.20;41.54;100361.16;6278333;22;20015;-67
2021/08/27 07:47:58;;;;;;;0.50;0.50;;;;;;;26.37;41.42;100349.34;6305607;22;20100;-70
2021/08/27 07:50:25;;;;;;;0.85;0.85;;;;;;;26.46;41.25;100358.19;6226643;22;20176;-63
2021/08/27 07:52:54;;;;;;;0.63;0.63;;;;;;;26.52;40.79;100370.91;6278728;22;20473;-62
2021/08/27 07:55:25;;;;;;;0.30;0.30;;;;;;;26.64;40.44;100369.50;6254056;22;20459;-64
2021/08/27 07:57:56;;;;;;;0.20;0.20;;;;;;;26.92;39.39;100338.56;6304942;22;20038;-66
2021/08/27 08:00:24;;;;;;;0.20;0.20;;;;;;;26.88;39.41;100329.22;6252050;22;20026;-68
2021/08/27 08:02:50;;;;;;;0.90;0.90;;;;;;;26.98;39.23;100346.91;6277931;22;20026;-64
2021/08/27 08:05:18;;;;;;;0.32;0.32;;;;;;;26.97;39.17;100348.75;6251671;22;20022;-69
2021/08/27 08:07:45;;;;;;;0.43;0.43;;;;;;;27.06;39.13;100336.94;6252692;22;20046;-66
2021/08/27 08:10:11;;;;;;;0.30;0.30;;;;;;;27.13;38.97;100347.78;6277282;22;20030;-65
2021/08/27 08:12:37;;;;;;;18.00;3.33;;;;;;;27.08;39.19;100366.28;6252453;22;20114;-67
2021/08/27 08:15:04;;;;;;;0.35;0.35;;;;;;;26.99;39.33;100340.53;6305226;22;20050;-67
2021/08/27 08:17:30;;;;;;;0.50;0.50;;;;;;;27.19;38.86;100355.16;6276163;22;20015;-67
2021/08/27 08:19:56;;;;;;;0.50;0.50;;;;;;;27.10;39.31;100321.34;6304206;22;20026;-65
2021/08/27 08:22:22;;;;;;;0.28;0.28;;;;;;;26.81;39.43;100355.03;6251244;22;20030;-66
2021/08/27 08:24:49;;;;;;;0.28;0.28;;;;;;;26.74;39.72;100321.88;6276956;22;20065;-63
2021/08/27 08:27:16;;;;;;;0.10;0.10;;;;;;;26.69;39.95;100345.72;6251159;22;20015;-64
2021/08/27 08:29:43;;;;;;;0.20;0.20;;;;;;;26.69;40.26;100340.34;6276753;22;20072;-64
2021/08/27 08:32:09;;;;;;;0.32;0.32;;;;;;;26.74;40.05;100337.97;6303969;22;20022;-67
2021/08/27 08:34:35;;;;;;;0.22;0.22;;;;;;;26.76;40.04;100368.13;6303581;22;20024;-68
2021/08/27 08:37:02;;;;;;;0.15;0.15;;;;;;;26.77;40.21;100348.31;6276689;22;20015;-69
2021/08/27 08:39:28;;;;;;;0.15;0.15;;;;;;;26.79;39.98;100362.41;6276221;22;20019;-67
2021/08/27 08:41:54;;;;;;;0.20;0.20;;;;;;;26.81;39.88;100356.88;6225586;22;20461;-65
2021/08/27 08:44:20;;;;;;;0.10;0.10;;;;;;;26.83;40.06;100354.88;6250783;22;20152;-67
2021/08/27 08:46:47;;;;;;;0.30;0.30;;;;;;;26.78;40.05;100355.38;6276749;22;20545;-65
2021/08/27 08:49:13;;;;;;;0.85;0.85;;;;;;;26.74;40.11;100356.72;6303639;22;20102;-66
2021/08/27 08:51:45;;;;;;;0.45;0.45;;;;;;;26.62;40.21;100349.25;6277582;22;20019;-65
2021/08/27 08:54:13;;;;;;;0.20;0.20;;;;;;;26.43;40.67;100339.81;6303971;22;20046;-64
2021/08/27 08:56:42;;;;;;;0.25;0.25;;;;;;;26.36;40.77;100361.09;6250946;22;20023;-68
2021/08/27 08:59:08;;;;;;;0.50;0.50;;;;;;;26.33;41.18;100348.03;6303997;22;20037;-66
2021/08/27 09:01:34;;;;;;;0.47;0.47;;;;;;;26.23;41.32;100334.03;6250267;22;20023;-63
2021/08/27 09:04:00;;;;;;;0.77;0.77;;;;;;;26.17;41.38;100339.22;6303913;22;20413;-66
2021/08/27 09:06:26;;;;;;;0.73;0.73;;;;;;;26.11;41.58;100346.06;6275674;22;20015;-66
2021/08/27 09:08:55;;;;;;;0.80;0.80;;;;;;;26.02;42.01;100328.34;6303815;22;20101;-66
2021/08/27 09:11:22;;;;;;;0.28;0.28;;;;;;;25.86;42.17;100315.88;6276615;22;20015;-65
2021/08/27 09:13:50;;;;;;;0.40;0.40;;;;;;;25.82;42.15;100335.09;6303486;22;20019;-64
2021/08/27 09:16:19;;;;;;;0.35;0.35;;;;;;;25.77;42.53;100326.75;6303611;22;20350;-64
2021/08/27 09:18:49;;;;;;;0.38;0.38;;;;;;;25.75;42.60;100326.91;6276784;22;20026;-65
2021/08/27 09:21:45;;;;;;;0.10;0.10;;;;;;;25.72;42.68;100348.66;6303252;22;20046;-67
2021/08/27 09:24:26;;;;;;;2.38;0.57;;;;;;;25.73;42.41;100338.78;6276264;22;20011;-65
2021/08/27 09:26:57;;;;;;;0.20;0.20;;;;;;;25.66;42.68;100319.06;6276652;22;20061;-64
2021/08/27 09:29:43;;;;;;;0.17;0.17;;;;;;;25.61;43.05;100354.38;6302667;22;20027;-63
2021/08/27 09:32:24;;;;;;;0.20;0.20;;;;;;;25.58;42.89;100327.13;6303087;22;20023;-63
2021/08/27 09:35:08;;;;;;;0.63;0.63;;;;;;;25.59;43.01;100326.94;6303179;22;20019;-64
2021/08/27 09:37:45;;;;;;;0.10;0.10;;;;;;;25.58;43.07;100333.31;6302747;22;20019;-64
2021/08/27 09:40:14;;;;;;;0.25;0.25;;;;;;;25.49;43.22;100318.22;6303238;22;20019;-64
2021/08/27 09:42:45;;;;;;;0.10;0.10;;;;;;;25.46;43.28;100334.59;6302801;22;20088;-63
2021/08/27 09:45:12;;;;;;;0.40;0.40;;;;;;;25.44;43.36;100336.63;6275783;22;20102;-64
2021/08/27 09:47:39;;;;;;;0.32;0.32;;;;;;;25.47;43.36;100325.59;6302687;22;20015;-64
2021/08/27 09:50:24;;;;;;;0.20;0.20;;;;;;;25.45;43.24;100316.06;6303045;22;20023;-64
2021/08/27 09:53:04;;;;;;;0.40;0.40;;;;;;;25.52;43.03;100314.44;6275604;22;20023;-68
2021/08/27 09:55:30;;;;;;;0.38;0.38;;;;;;;25.47;43.45;100301.53;6276912;22;20023;-64
2021/08/27 09:58:12;;;;;;;0.28;0.28;;;;;;;25.43;43.56;100318.91;6276301;22;20043;-68
2021/08/27 10:00:41;;;;;;;0.22;0.22;;;;;;;25.41;43.39;100312.91;6302597;22;20451;-68
2021/08/27 10:03:29;;;;;;;0.37;0.37;;;;;;;25.44;43.11;100323.25;6303570;22;20023;-66
2021/08/27 10:05:57;;;;;;;0.10;0.10;;;;;;;25.42;43.15;100303.88;6303511;22;20244;-68
2021/08/27 10:08:32;;;;;;;0.32;0.32;;;;;;;25.27;43.22;100311.72;6302910;22;20042;-66
2021/08/27 10:11:18;;;;;;;0.28;0.28;;;;;;;25.49;43.09;100322.75;6302959;22;20141;-69
2021/08/27 10:13:44;;;;;;;0.20;0.20;;;;;;;25.49;42.77;100336.13;6304174;22;20022;-68
2021/08/27 10:16:10;;;;;;;0.20;0.20;;;;;;;25.42;42.82;100312.72;6306031;22;20015;-64
2021/08/27 10:18:36;;;;;;;0.30;0.30;;;;;;;25.43;42.91;100302.84;6304692;22;20019;-64
2021/08/27 10:21:02;;;;;;;0.47;0.47;;;;;;;25.38;42.48;100331.94;6278330;22;20023;-65
2021/08/27 10:23:29;;;;;;;0.35;0.35;;;;;;;25.35;42.30;100321.59;6304977;22;20490;-66
2021/08/27 10:25:55;;;;;;;0.10;0.10;;;;;;;25.31;42.50;100306.88;6304990;22;20015;-67
2021/08/27 10:28:27;;;;;;;0.20;0.20;;;;;;;25.31;42.57;100310.38;6252243;22;20026;-69
2021/08/27 10:30:58;;;;;;;0.20;0.20;;;;;;;25.33;42.71;100310.22;6279176;22;20023;-66
2021/08/27 10:33:47;;;;;;;0.28;0.28;;;;;;;25.32;42.59;100303.22;6304753;22;20015;-65
2021/08/27 10:36:22;;;;;;;0.10;0.10;;;;;;;25.37;42.51;100330.25;6288570;22;20019;-64
2021/08/27 10:38:50;;;;;;;0.20;0.20;;;;;;;25.35;42.31;100326.94;6304774;22;20047;-66
2021/08/27 10:41:21;;;;;;;0.30;0.30;;;;;;;25.31;42.43;100317.56;6304804;22;20518;-67
2021/08/27 10:43:58;;;;;;;0.45;0.22;;;;;;;25.31;42.22;100296.19;6277254;22;20287;-66
2021/08/27 10:46:45;;;;;;;0.20;0.20;;;;;;;25.35;42.20;100321.59;6277300;22;20061;-66
2021/08/27 10:49:15;;;;;;;0.10;0.10;;;;;;;25.34;42.14;100290.50;6304530;22;20015;-66
2021/08/27 10:51:43;;;;;;;0.10;0.10;;;;;;;25.38;41.87;100322.09;6277612;22;20025;-64
2021/08/27 10:54:10;;;;;;;0.65;0.65;;;;;;;25.35;41.55;100301.03;6277673;22;20095;-64
2021/08/27 10:56:52;;;;;;;0.10;0.10;;;;;;;25.38;41.55;100310.56;6304098;22;20019;-64
2021/08/27 10:59:20;;;;;;;0.30;0.30;;;;;;;25.31;41.42;100289.00;6304655;22;20019;-65
2021/08/27 11:01:47;;;;;;;0.20;0.20;;;;;;;25.41;41.93;100288.81;6276886;22;20093;-64
2021/08/27 11:04:20;;;;;;;0.30;0.30;;;;;;;25.45;42.19;100303.53;6304398;22;20462;-65
2021/08/27 11:06:56;;;;;;;0.10;0.10;;;;;;;25.46;41.73;100301.69;6304163;22;20018;-65
2021/08/27 11:09:28;;;;;;;0.20;0.20;;;;;;;25.46;41.67;100313.22;6304467;22;20077;-64
2021/08/27 11:12:14;;;;;;;0.10;0.10;;;;;;;25.50;41.72;100330.63;6304397;22;20327;-64
2021/08/27 11:14:41;;;;;;;0.10;0.10;;;;;;;25.52;41.92;100343.84;6304190;22;20122;-65
2021/08/27 11:17:08;;;;;;;0.22;0.22;;;;;;;25.42;41.72;100292.34;6304305;22;20102;-65
2021/08/27 11:19:49;;;;;;;0.28;0.28;;;;;;;25.52;41.42;100304.56;6304092;22;20019;-64
2021/08/27 11:22:30;;;;;;;0.30;0.30;;;;;;;25.54;41.30;100296.38;6304147;22;20019;-65
2021/08/27 11:25:10;;;;;;;0.40;0.40;;;;;;;25.49;40.98;100291.47;6276566;22;20022;-64
2021/08/27 11:27:36;;;;;;;0.20;0.20;;;;;;;25.49;40.86;100286.13;6303839;22;20019;-64
2021/08/27 11:30:27;;;;;;;0.30;0.30;;;;;;;25.46;40.65;100318.56;6304272;22;20103;-65
2021/08/27 11:32:55;;;;;;;0.10;0.10;;;;;;;25.50;40.23;100308.41;6304364;22;20474;-64
2021/08/27 11:35:21;;;;;;;0.10;0.10;;;;;;;25.49;40.08;100318.22;6304398;22;20102;-64
2021/08/27 11:37:53;;;;;;;0.98;0.98;;;;;;;25.49;40.10;100288.81;6303875;22;20026;-64
2021/08/27 11:40:20;;;;;;;0.15;0.15;;;;;;;25.54;39.96;100315.91;6304587;22;20344;-64
2021/08/27 11:42:46;;;;;;;0.10;0.10;;;;;;;25.50;39.66;100314.59;6276696;22;20015;-65
2021/08/27 11:45:20;;;;;;;0.10;0.10;;;;;;;25.52;39.65;100301.06;6251764;22;20022;-64
2021/08/27 11:47:49;;;;;;;0.10;0.10;;;;;;;25.54;39.85;100305.22;6304284;22;20019;-65
2021/08/27 11:50:39;;;;;;;0.10;0.10;;;;;;;25.51;39.87;100305.56;6304121;22;20019;-64
2021/08/27 11:53:08;;;;;;;0.17;0.17;;;;;;;25.57;40.23;100312.06;6304258;22;20244;-65
2021/08/27 11:55:45;;;;;;;0.40;0.40;;;;;;;25.55;39.73;100272.13;6276602;22;20030;-65
2021/08/27 11:58:10;;;;;;;0.20;0.20;;;;;;;25.53;39.66;100308.91;6304037;22;20019;-65
2021/08/27 12:00:41;;;;;;;0.55;0.32;;;;;;;25.56;39.48;100302.38;6251268;22;20084;-66
2021/08/27 12:03:08;;;;;;;0.10;0.10;;;;;;;25.59;39.59;100308.22;6304047;22;20015;-64
2021/08/27 12:05:34;;;;;;;0.20;0.20;;;;;;;25.60;39.27;100288.50;6303753;22;20054;-67
2021/08/27 12:08:02;;;;;;;0.30;0.30;;;;;;;25.56;39.55;100308.56;6302534;22;20019;-66
2021/08/27 12:10:35;;;;;;;0.10;0.10;;;;;;;25.56;39.94;100291.66;6304046;22;20430;-65
2021/08/27 12:13:03;;;;;;;0.40;0.40;;;;;;;25.56;40.13;100291.66;6276952;22;20023;-66
2021/08/27 12:15:33;;;;;;;0.15;0.15;;;;;;;25.58;40.45;100295.88;6276697;22;20015;-66
2021/08/27 12:18:03;;;;;;;0.10;0.10;;;;;;;25.58;40.37;100289.69;6303970;22;20516;-66
2021/08/27 12:20:37;;;;;;;0.30;0.30;;;;;;;25.57;40.69;100304.88;6303805;22;20022;-66
2021/08/27 12:23:10;;;;;;;0.20;0.20;;;;;;;25.59;40.75;100294.84;6303956;22;20166;-67
2021/08/27 12:25:43;;;;;;;0.10;0.10;;;;;;;25.64;40.67;100289.00;6276073;22;20050;-66
2021/08/27 12:28:11;;;;;;;5.70;1.30;;;;;;;25.65;40.99;100294.19;6303715;22;20021;-64
2021/08/27 12:30:48;;;;;;;0.10;0.10;;;;;;;25.66;40.83;100277.09;6303262;22;20042;-66
2021/08/27 12:33:14;;;;;;;0.55;0.55;;;;;;;25.69;40.85;100295.50;6303900;22;20362;-66
2021/08/27 12:35:40;;;;;;;0.15;0.15;;;;;;;25.64;41.06;100268.44;6303327;22;20043;-66
2021/08/27 12:38:06;;;;;;;0.28;0.28;;;;;;;25.53;40.50;100273.28;6251148;22;20148;-66